Time;durP1;ratioP1;P1;durP2;ratioP2;P2;SDS_P1;SDS_P2;PMS_P1;PMS_P2;Temp;Humidity;BMP_temperature;BMP_pressure;BME280_temperature;BME280_humidity;BME280_pressure;Samples;Min_cycle;Max_cycle;Signal;HPM_P1;HPM_P2
2022/03/27 05:01:03;;;;;;;20.27;10.23;;;3.60;95.50;;;;;;5612955;23;20302;-81
2022/03/27 05:03:30;;;;;;;22.52;11.07;;;3.50;95.60;;;;;;4975431;28;20054;-81
2022/03/27 05:05:57;;;;;;;25.17;11.80;;;3.40;95.70;;;;;;4976114;28;20097;-80
2022/03/27 05:08:24;;;;;;;22.98;11.55;;;3.30;96.20;;;;;;4975440;28;20530;-80
2022/03/27 05:10:51;;;;;;;20.38;10.80;;;3.00;96.30;;;;;;4975534;28;20107;-81
2022/03/27 05:13:19;;;;;;;21.58;11.07;;;2.80;97.30;;;;;;4975276;28;20141;-80
2022/03/27 05:15:47;;;;;;;23.83;11.52;;;3.10;97.20;;;;;;4975819;28;20135;-80
2022/03/27 05:18:15;;;;;;;23.30;12.45;;;3.30;96.60;;;;;;4966339;28;20046;-81
2022/03/27 05:20:44;;;;;;;23.92;11.50;;;2.90;96.80;;;;;;4975136;28;20118;-80
2022/03/27 05:23:11;;;;;;;22.40;11.68;;;2.90;97.40;;;;;;4975273;28;20452;-80
2022/03/27 05:25:42;;;;;;;23.83;11.70;;;3.00;97.40;;;;;;4977063;28;20465;-87
2022/03/27 05:28:10;;;;;;;22.63;12.02;;;2.90;97.20;;;;;;4977102;28;20186;-84
2022/03/27 05:30:38;;;;;;;23.83;12.27;;;2.80;98.00;;;;;;4965319;28;20118;-81
2022/03/27 05:33:07;;;;;;;20.40;10.48;;;2.70;98.10;;;;;;4972250;28;20118;-82
2022/03/27 05:35:35;;;;;;;25.02;11.32;;;2.80;98.10;;;;;;4976337;28;20077;-80
2022/03/27 05:38:03;;;;;;;21.70;11.35;;;3.00;97.40;;;;;;4975352;28;20093;-82
2022/03/27 05:40:30;;;;;;;23.30;11.80;;;3.30;96.80;;;;;;4975658;28;20055;-82
2022/03/27 05:42:57;;;;;;;24.15;11.40;;;2.90;97.30;;;;;;4975947;28;20122;-85
2022/03/27 05:45:25;;;;;;;20.60;11.07;;;2.80;97.80;;;;;;4975326;28;20089;-80
2022/03/27 05:47:53;;;;;;;22.30;11.05;;;3.10;97.50;;;;;;4975483;28;20134;-80
2022/03/27 05:50:22;;;;;;;20.70;10.52;;;3.00;97.70;;;;;;4973963;28;20126;-82
2022/03/27 05:52:52;;;;;;;23.27;11.52;;;3.20;97.20;;;;;;4975498;28;20047;-79
2022/03/27 05:55:20;;;;;;;24.08;11.38;;;2.90;97.50;;;;;;4974473;28;20576;-80
2022/03/27 05:57:47;;;;;;;22.35;11.63;;;3.00;97.90;;;;;;4974016;28;20082;-80
2022/03/27 06:00:20;;;;;;;22.73;11.60;;;3.20;97.60;;;;;;4969694;28;20078;-88
2022/03/27 06:02:48;;;;;;;21.92;11.45;;;3.10;97.40;;;;;;4967313;28;20058;-91
2022/03/27 06:05:17;;;;;;;23.00;11.13;;;3.10;97.30;;;;;;4969894;28;20051;-83
2022/03/27 06:07:51;;;;;;;24.23;11.80;;;2.90;98.10;;;;;;4968347;28;20183;-81
2022/03/27 06:10:26;;;;;;;24.10;11.93;;;3.20;97.60;;;;;;4974115;28;20560;-86
2022/03/27 06:12:54;;;;;;;22.60;11.15;;;3.40;96.90;;;;;;4973125;28;20518;-83
2022/03/27 06:15:22;;;;;;;25.30;11.75;;;3.40;97.00;;;;;;4974199;28;20042;-83
2022/03/27 06:18:17;;;;;;;21.48;11.35;;;3.40;97.00;;;;;;5183079;23;21913;-88
2022/03/27 06:20:45;;;;;;;25.23;11.90;;;3.30;97.00;;;;;;4923934;29;20062;-80
2022/03/27 06:23:13;;;;;;;23.52;12.77;;;3.30;97.20;;;;;;4933597;29;20052;-79
2022/03/27 06:25:41;;;;;;;25.48;12.15;;;3.10;97.70;;;;;;4934747;29;20051;-78
2022/03/27 06:28:08;;;;;;;23.60;11.90;;;3.20;97.60;;;;;;4933332;29;20122;-78
2022/03/27 06:30:35;;;;;;;23.98;12.00;;;3.10;97.90;;;;;;4930161;29;20054;-79
2022/03/27 06:33:03;;;;;;;23.67;11.98;;;3.10;97.80;;;;;;4934306;29;20059;-78
2022/03/27 06:35:31;;;;;;;25.25;12.77;;;3.20;98.30;;;;;;4934612;29;20134;-79
2022/03/27 06:37:59;;;;;;;24.77;12.18;;;3.20;98.50;;;;;;4933476;29;20125;-78
2022/03/27 06:40:27;;;;;;;23.50;12.00;;;3.50;98.00;;;;;;4934030;29;20489;-79
2022/03/27 06:42:57;;;;;;;25.65;12.07;;;3.50;97.60;;;;;;4934065;29;20058;-79
2022/03/27 06:45:24;;;;;;;21.92;12.23;;;3.40;98.00;;;;;;4934722;29;20052;-79
2022/03/27 06:47:52;;;;;;;25.10;11.85;;;3.60;97.70;;;;;;4934144;29;20095;-80
2022/03/27 06:50:22;;;;;;;23.08;12.60;;;3.80;97.30;;;;;;4934793;29;20126;-79
2022/03/27 06:52:50;;;;;;;21.05;11.65;;;3.80;97.20;;;;;;4935041;29;20057;-79
2022/03/27 06:55:18;;;;;;;21.92;11.60;;;3.80;97.10;;;;;;4940740;29;20089;-80
2022/03/27 06:57:46;;;;;;;20.92;11.18;;;4.00;97.00;;;;;;4935338;29;20087;-80
2022/03/27 07:03:03;;;;;;;25.08;12.60;;;4.30;96.10;;;;;;4935082;29;20055;-80
2022/03/27 07:05:31;;;;;;;20.48;11.10;;;4.40;95.50;;;;;;4935061;29;20496;-79
2022/03/27 07:07:58;;;;;;;22.38;11.38;;;4.70;95.50;;;;;;4934348;29;20134;-79
2022/03/27 07:10:26;;;;;;;21.02;11.38;;;4.90;95.00;;;;;;4934475;29;20110;-80
2022/03/27 07:12:58;;;;;;;22.63;10.90;;;4.90;94.90;;;;;;4934080;29;20060;-80
2022/03/27 07:15:25;;;;;;;21.75;11.52;;;5.00;95.10;;;;;;4934460;29;20048;-81
2022/03/27 07:17:54;;;;;;;24.33;12.00;;;5.00;95.20;;;;;;4934205;29;20139;-80
2022/03/27 07:20:25;;;;;;;21.83;12.25;;;5.00;95.10;;;;;;4951047;29;20138;-80
2022/03/27 07:22:53;;;;;;;24.73;12.55;;;5.20;94.60;;;;;;4953234;29;20497;-80
2022/03/27 07:25:21;;;;;;;29.38;12.45;;;5.10;94.20;;;;;;4954190;28;20134;-85
2022/03/27 07:27:49;;;;;;;21.25;11.32;;;5.20;94.30;;;;;;4954613;29;20138;-87
2022/03/27 07:30:18;;;;;;;25.45;12.25;;;5.40;94.00;;;;;;4953233;29;20055;-77
2022/03/27 07:32:45;;;;;;;22.45;11.68;;;5.50;93.90;;;;;;4937827;29;20076;-78
2022/03/27 07:35:15;;;;;;;20.25;12.10;;;5.60;93.40;;;;;;4954048;29;20079;-78
2022/03/27 07:37:44;;;;;;;25.58;12.30;;;5.80;93.50;;;;;;4952663;29;20051;-79
2022/03/27 07:40:12;;;;;;;24.25;12.70;;;5.90;93.40;;;;;;4952410;28;20489;-79
2022/03/27 07:42:41;;;;;;;25.42;12.70;;;5.90;92.90;;;;;;4957309;29;20126;-79
2022/03/27 07:45:10;;;;;;;22.92;11.95;;;6.00;92.70;;;;;;4957319;29;20134;-78
2022/03/27 07:47:38;;;;;;;25.13;12.27;;;6.10;92.60;;;;;;4957083;29;20106;-79
2022/03/27 07:50:08;;;;;;;23.55;10.98;;;6.30;92.80;;;;;;4957452;29;20134;-79
2022/03/27 07:52:36;;;;;;;22.08;11.85;;;6.40;92.60;;;;;;4956934;29;20134;-80
2022/03/27 07:55:05;;;;;;;23.70;12.15;;;6.50;92.40;;;;;;4941631;28;20133;-79
2022/03/27 07:57:33;;;;;;;22.35;12.48;;;6.50;92.50;;;;;;4956531;29;20051;-79
2022/03/27 08:00:00;;;;;;;23.08;11.85;;;6.60;92.50;;;;;;4956826;29;20075;-81
2022/03/27 08:02:27;;;;;;;22.80;11.82;;;6.70;92.50;;;;;;4955635;29;20044;-78
2022/03/27 08:04:57;;;;;;;26.95;13.13;;;6.90;92.90;;;;;;4956209;28;20043;-78
2022/03/27 08:07:24;;;;;;;24.27;12.10;;;6.90;92.80;;;;;;4957376;29;20051;-78
2022/03/27 08:09:52;;;;;;;23.13;12.27;;;7.10;92.30;;;;;;4957643;29;20050;-78
2022/03/27 08:12:20;;;;;;;25.63;12.90;;;7.20;91.90;;;;;;4947397;29;20141;-78
2022/03/27 08:14:49;;;;;;;25.92;12.73;;;7.30;91.70;;;;;;4953241;29;20062;-79
2022/03/27 08:17:16;;;;;;;22.27;11.75;;;7.30;91.40;;;;;;4954767;29;20051;-79
2022/03/27 08:19:44;;;;;;;22.42;11.00;;;7.40;91.40;;;;;;4955297;29;20056;-78
2022/03/27 08:22:15;;;;;;;22.80;12.45;;;7.50;91.20;;;;;;4954677;28;20043;-78
2022/03/27 08:24:42;;;;;;;23.85;12.75;;;7.50;91.20;;;;;;4950210;29;20051;-78
2022/03/27 08:27:09;;;;;;;23.02;11.00;;;7.60;91.30;;;;;;4954810;29;20053;-78
2022/03/27 08:29:39;;;;;;;23.42;11.80;;;7.80;91.00;;;;;;4953902;29;20051;-78
2022/03/27 08:32:09;;;;;;;20.25;11.25;;;7.90;90.70;;;;;;4953015;29;20043;-78
2022/03/27 08:34:39;;;;;;;22.05;10.98;;;7.90;90.70;;;;;;4955405;29;20046;-79
2022/03/27 08:37:13;;;;;;;18.20;10.75;;;8.10;90.70;;;;;;4954165;28;20039;-79
2022/03/27 08:39:41;;;;;;;19.73;11.02;;;8.20;90.40;;;;;;4946661;28;20492;-78
2022/03/27 08:42:08;;;;;;;19.85;11.07;;;8.20;90.50;;;;;;4952533;28;20047;-78
2022/03/27 08:44:37;;;;;;;20.33;11.15;;;8.30;90.20;;;;;;4952243;29;20054;-80
2022/03/27 08:47:15;;;;;;;18.55;9.60;;;8.40;90.30;;;;;;4955210;29;20452;-79
2022/03/27 08:49:49;;;;;;;19.80;11.50;;;8.50;89.70;;;;;;4949446;29;20047;-78
2022/03/27 08:52:41;;;;;;;19.63;11.13;;;8.50;89.80;;;;;;4954613;28;20051;-79
2022/03/27 08:55:14;;;;;;;23.20;12.55;;;8.60;89.70;;;;;;4953195;29;20375;-85
2022/03/27 08:57:55;;;;;;;23.55;11.77;;;8.60;89.30;;;;;;4950978;29;20047;-86
2022/03/27 09:00:22;;;;;;;19.92;11.00;;;8.70;89.50;;;;;;4955573;29;22194;-86
2022/03/27 09:02:50;;;;;;;22.60;13.23;;;8.90;90.10;;;;;;4956034;29;20134;-86
2022/03/27 09:05:22;;;;;;;20.50;11.07;;;9.00;89.80;;;;;;4954954;29;20141;-87
2022/03/27 09:07:51;;;;;;;21.55;10.93;;;9.10;89.50;;;;;;4956843;29;20043;-89
2022/03/27 09:10:20;;;;;;;19.83;10.55;;;9.20;90.00;;;;;;4955920;28;20058;-93
2022/03/27 09:12:47;;;;;;;21.13;10.98;;;9.30;89.60;;;;;;4952810;29;20070;-92
2022/03/27 09:15:19;;;;;;;18.45;10.23;;;9.50;89.30;;;;;;4950778;29;20135;-89
2022/03/27 09:17:58;;;;;;;22.05;12.57;;;9.60;89.20;;;;;;4951510;28;20485;-81
2022/03/27 09:20:41;;;;;;;19.58;11.57;;;9.90;89.10;;;;;;4953578;28;20101;-81
2022/03/27 09:23:24;;;;;;;23.00;12.18;;;9.90;88.80;;;;;;4953472;28;20047;-81
2022/03/27 09:25:56;;;;;;;19.77;11.07;;;10.10;88.10;;;;;;4954521;29;20043;-81
2022/03/27 09:28:30;;;;;;;18.90;10.50;;;10.20;87.70;;;;;;4952390;29;20059;-81
2022/03/27 09:30:58;;;;;;;18.75;11.32;;;10.20;87.00;;;;;;4948919;28;20063;-81
2022/03/27 09:33:50;;;;;;;17.60;10.27;;;10.30;86.50;;;;;;4951935;29;20138;-80
2022/03/27 09:36:21;;;;;;;21.40;11.63;;;10.60;86.90;;;;;;4953298;29;20130;-82
2022/03/27 09:39:12;;;;;;;26.15;12.98;;;10.70;86.60;;;;;;4954188;29;20082;-79
2022/03/27 09:41:43;;;;;;;21.75;11.40;;;11.10;85.00;;;;;;4952537;29;20051;-79
2022/03/27 09:44:15;;;;;;;25.23;13.45;;;11.10;84.30;;;;;;4953832;29;20126;-79
2022/03/27 09:46:52;;;;;;;21.73;11.77;;;11.40;83.80;;;;;;4948396;29;20043;-80
2022/03/27 09:49:21;;;;;;;19.98;11.35;;;11.40;83.40;;;;;;4953756;29;20057;-81
2022/03/27 09:51:54;;;;;;;22.92;11.57;;;11.50;82.70;;;;;;4954662;29;20135;-80
2022/03/27 09:54:22;;;;;;;18.80;10.77;;;11.50;81.70;;;;;;4953720;29;20054;-81
2022/03/27 09:56:50;;;;;;;16.95;10.02;;;11.60;81.50;;;;;;4954120;29;20047;-81
2022/03/27 09:59:32;;;;;;;17.50;10.60;;;11.80;81.40;;;;;;4953591;29;20055;-80
2022/03/27 10:02:18;;;;;;;22.77;12.07;;;12.00;80.90;;;;;;4954407;29;20110;-83
2022/03/27 10:04:54;;;;;;;20.73;10.20;;;12.00;80.30;;;;;;4945517;29;20121;-79
2022/03/27 10:07:22;;;;;;;22.67;11.48;;;12.10;80.00;;;;;;4950959;29;20134;-80
2022/03/27 10:09:51;;;;;;;19.05;10.68;;;12.30;79.00;;;;;;4951671;29;20129;-80
2022/03/27 10:12:19;;;;;;;14.73;8.98;;;12.50;77.60;;;;;;4951202;29;20102;-79
2022/03/27 10:14:48;;;;;;;19.23;10.60;;;12.50;77.30;;;;;;4951100;29;20047;-80
2022/03/27 10:17:17;;;;;;;18.33;10.02;;;12.80;75.60;;;;;;4951163;29;20054;-80
2022/03/27 10:19:52;;;;;;;21.15;10.23;;;13.00;73.20;;;;;;4951168;29;20523;-80
2022/03/27 10:22:21;;;;;;;16.55;9.00;;;13.10;72.20;;;;;;4950807;29;20054;-80
2022/03/27 10:24:52;;;;;;;17.35;9.52;;;13.10;70.90;;;;;;4951291;29;20098;-79
2022/03/27 10:27:20;;;;;;;22.52;10.40;;;13.20;72.10;;;;;;4950127;29;20102;-78
2022/03/27 10:29:48;;;;;;;22.70;11.05;;;13.20;70.90;;;;;;4951137;29;20457;-81
2022/03/27 10:32:15;;;;;;;17.73;9.73;;;13.50;72.40;;;;;;4950479;29;20419;-80
2022/03/27 10:34:55;;;;;;;16.55;10.07;;;13.50;71.10;;;;;;4950959;29;20579;-83
2022/03/27 10:37:33;;;;;;;16.52;8.23;;;13.60;70.00;;;;;;4952656;29;20194;-82
2022/03/27 10:40:10;;;;;;;19.55;9.93;;;13.70;68.30;;;;;;4950117;29;20055;-83
2022/03/27 10:42:52;;;;;;;18.63;10.30;;;13.80;67.50;;;;;;4950855;29;20070;-81
2022/03/27 10:45:22;;;;;;;18.50;10.05;;;13.90;66.10;;;;;;4949935;29;20134;-82
2022/03/27 10:48:15;;;;;;;22.05;10.90;;;13.90;63.50;;;;;;4948202;28;20058;-83
2022/03/27 10:50:51;;;;;;;19.17;10.48;;;14.10;64.10;;;;;;4942109;28;20134;-82
2022/03/27 10:53:21;;;;;;;17.23;8.90;;;14.30;64.10;;;;;;4949184;29;20073;-84
2022/03/27 10:55:52;;;;;;;18.85;9.48;;;14.50;63.20;;;;;;4950285;29;20211;-83
2022/03/27 10:58:38;;;;;;;19.73;9.52;;;14.70;62.00;;;;;;4949698;29;20078;-85
2022/03/27 11:01:09;;;;;;;16.20;8.48;;;14.70;60.40;;;;;;4950182;29;20138;-83
2022/03/27 11:04:04;;;;;;;16.55;9.15;;;14.90;59.40;;;;;;4950231;29;20654;-85
2022/03/27 11:06:32;;;;;;;19.85;9.55;;;14.90;58.40;;;;;;4950919;29;20066;-77
2022/03/27 11:09:03;;;;;;;19.77;10.75;;;14.80;58.40;;;;;;4950712;29;20425;-78
2022/03/27 11:11:58;;;;;;;17.58;9.10;;;14.90;58.00;;;;;;4950144;29;20058;-81
2022/03/27 11:14:56;;;;;;;19.00;9.57;;;14.90;57.90;;;;;;4941449;28;20690;-78
2022/03/27 11:17:45;;;;;;;16.98;9.50;;;15.00;56.80;;;;;;4953915;29;20048;-78
2022/03/27 11:20:54;;;;;;;20.48;9.93;;;15.10;57.50;;;;;;4953750;29;20106;-79
2022/03/27 11:23:37;;;;;;;20.25;9.07;;;15.50;54.10;;;;;;4953164;29;20058;-77
2022/03/27 11:26:06;;;;;;;16.77;7.80;;;15.80;51.40;;;;;;4953441;28;20134;-78
2022/03/27 11:28:50;;;;;;;13.63;8.23;;;15.80;50.40;;;;;;4953734;29;20048;-78
2022/03/27 11:31:27;;;;;;;17.27;7.63;;;16.00;50.10;;;;;;4952853;29;20138;-77
2022/03/27 11:34:19;;;;;;;15.35;7.35;;;15.80;49.10;;;;;;4957361;28;20075;-77
2022/03/27 11:37:10;;;;;;;17.42;9.05;;;15.90;48.80;;;;;;4936489;29;20051;-77
2022/03/27 11:39:38;;;;;;;17.27;8.07;;;15.80;47.90;;;;;;4953431;29;20051;-78
2022/03/27 11:42:31;;;;;;;16.63;8.18;;;15.90;47.60;;;;;;4953694;29;20051;-78
2022/03/27 11:45:20;;;;;;;16.02;7.78;;;15.90;47.80;;;;;;4950753;29;20107;-77
2022/03/27 11:47:51;;;;;;;18.35;8.05;;;16.00;46.10;;;;;;4947208;29;20127;-77
2022/03/27 11:50:31;;;;;;;17.45;8.00;;;16.00;45.10;;;;;;4952221;29;20047;-77
2022/03/27 11:53:00;;;;;;;14.32;7.40;;;16.40;44.90;;;;;;4952713;28;20055;-77
2022/03/27 11:55:33;;;;;;;13.20;6.50;;;16.50;43.10;;;;;;4958713;28;20419;-76
2022/03/27 11:58:03;;;;;;;13.88;6.93;;;16.60;42.80;;;;;;4954339;28;20484;-78
2022/03/27 12:00:38;;;;;;;12.98;7.07;;;16.80;44.10;;;;;;4953465;29;20050;-78
2022/03/27 12:03:14;;;;;;;;;;;17.10;43.20;;;;;;4955137;28;20043;-78
2022/03/27 12:05:43;;;;;;;16.42;8.23;;;17.30;42.60;;;;;;4951422;28;19922;-78
2022/03/27 12:08:12;;;;;;;15.15;7.20;;;17.30;42.00;;;;;;4953152;29;20051;-78
2022/03/27 12:10:42;;;;;;;14.93;7.50;;;17.30;41.40;;;;;;4951734;28;20492;-77
2022/03/27 12:13:10;;;;;;;16.40;8.13;;;17.30;41.30;;;;;;4953337;29;20455;-77
2022/03/27 12:15:45;;;;;;;15.73;7.35;;;17.40;40.80;;;;;;4953220;28;20103;-78
2022/03/27 12:18:14;;;;;;;14.00;7.05;;;17.50;40.80;;;;;;4952969;29;20061;-78
2022/03/27 12:20:48;;;;;;;17.38;6.90;;;17.50;39.90;;;;;;4947335;29;20063;-78
2022/03/27 12:23:26;;;;;;;12.45;6.10;;;17.70;40.20;;;;;;4952432;29;20102;-77
2022/03/27 12:32:05;;;;;;;11.73;5.93;;;18.20;38.20;;;;;;4949141;29;20102;-83
2022/03/27 12:34:34;;;;;;;14.07;6.93;;;18.30;38.10;;;;;;4952464;29;20057;-82
2022/03/27 12:37:14;;;;;;;13.65;6.40;;;18.60;38.00;;;;;;4952236;29;20047;-83
2022/03/27 12:40:01;;;;;;;9.93;5.10;;;18.70;37.40;;;;;;4951104;29;20058;-81
2022/03/27 12:42:47;;;;;;;10.23;6.18;;;18.80;35.90;;;;;;4953411;28;20135;-81
2022/03/27 12:45:18;;;;;;;12.27;6.18;;;19.00;36.60;;;;;;4952390;29;20058;-82
2022/03/27 12:47:50;;;;;;;10.88;5.80;;;19.20;36.10;;;;;;4954026;28;20048;-80
2022/03/27 12:50:34;;;;;;;9.98;5.80;;;19.40;36.20;;;;;;4957229;28;20051;-91
2022/03/27 12:53:04;;;;;;;10.93;6.22;;;19.50;35.00;;;;;;4958535;28;20461;-89
2022/03/27 12:55:45;;;;;;;11.57;6.55;;;19.60;35.70;;;;;;4956621;29;20134;-89
2022/03/27 12:58:13;;;;;;;10.85;5.65;;;19.90;35.30;;;;;;4954119;29;20559;-90
2022/03/27 13:00:41;;;;;;;15.15;6.78;;;20.10;35.30;;;;;;4948912;29;20134;-89
2022/03/27 13:03:16;;;;;;;10.68;6.10;;;20.30;34.50;;;;;;4957404;28;20162;-88
2022/03/27 13:05:48;;;;;;;11.27;6.22;;;20.40;34.50;;;;;;4945329;29;20047;-90
2022/03/27 13:08:26;;;;;;;12.15;6.53;;;20.60;33.90;;;;;;4953353;29;20453;-89
2022/03/27 13:10:57;;;;;;;11.05;6.50;;;20.70;33.60;;;;;;4955836;28;20047;-88
2022/03/27 13:13:34;;;;;;;11.18;5.97;;;20.80;34.00;;;;;;4957615;28;20047;-89
2022/03/27 13:16:01;;;;;;;11.50;6.10;;;21.00;33.20;;;;;;4948113;28;20077;-88
2022/03/27 13:18:32;;;;;;;9.88;5.75;;;21.20;31.90;;;;;;4956359;29;20134;-90
2022/03/27 13:21:13;;;;;;;10.18;5.38;;;21.40;32.20;;;;;;4955561;28;20061;-91
2022/03/27 13:23:40;;;;;;;11.32;5.80;;;21.30;32.60;;;;;;4955656;29;20058;-89
2022/03/27 13:26:07;;;;;;;10.68;5.78;;;21.60;32.30;;;;;;4953949;29;20122;-88
2022/03/27 13:28:34;;;;;;;13.20;6.20;;;22.10;31.80;;;;;;4948301;29;20150;-88
2022/03/27 13:31:10;;;;;;;11.77;5.65;;;22.20;30.70;;;;;;4958570;29;20147;-96
2022/03/27 13:36:53;;;;;;;10.75;5.93;;;22.40;30.30;;;;;;4965062;29;20073;-96
2022/03/27 13:39:23;;;;;;;10.18;5.97;;;22.60;30.60;;;;;;4948154;29;20051;-96
2022/03/27 13:44:38;;;;;;;12.45;6.97;;;23.20;29.80;;;;;;4968008;29;20061;-96
2022/03/27 13:47:06;;;;;;;10.30;6.43;;;22.90;30.00;;;;;;4965236;29;20047;-96
2022/03/27 13:49:35;;;;;;;12.65;6.22;;;23.00;30.70;;;;;;4957400;28;20075;-95
2022/03/27 13:52:02;;;;;;;10.50;5.88;;;23.40;30.30;;;;;;4948148;28;20055;-83
2022/03/27 13:54:29;;;;;;;10.73;5.90;;;23.20;30.00;;;;;;4949954;28;20047;-82
2022/03/27 13:56:56;;;;;;;12.00;6.30;;;23.90;31.10;;;;;;4950532;29;20378;-80
2022/03/27 13:59:23;;;;;;;11.65;6.53;;;24.10;31.40;;;;;;4955363;28;20090;-81
2022/03/27 14:01:52;;;;;;;12.63;6.50;;;24.10;30.70;;;;;;4955701;28;20050;-87
2022/03/27 14:04:20;;;;;;;13.25;6.20;;;24.90;29.80;;;;;;4952513;28;20150;-83
2022/03/27 14:06:49;;;;;;;11.23;6.30;;;25.00;29.30;;;;;;4961554;28;20848;-85
2022/03/27 14:09:16;;;;;;;10.98;6.30;;;24.90;28.60;;;;;;4957217;28;20086;-81
2022/03/27 14:11:43;;;;;;;12.15;6.40;;;24.60;30.80;;;;;;4950723;29;20043;-80
2022/03/27 14:14:11;;;;;;;12.15;6.35;;;25.20;31.00;;;;;;4950439;28;20055;-82
2022/03/27 14:16:40;;;;;;;10.57;6.30;;;25.20;28.70;;;;;;4951081;28;20054;-82
2022/03/27 14:19:07;;;;;;;20.63;7.43;;;26.30;29.30;;;;;;4952557;29;20063;-81
2022/03/27 14:21:34;;;;;;;11.75;6.20;;;25.80;28.50;;;;;;4952759;29;20118;-82
2022/03/27 14:24:03;;;;;;;10.20;6.40;;;24.60;28.70;;;;;;4952608;29;20051;-82
2022/03/27 14:26:30;;;;;;;12.05;6.72;;;25.30;28.10;;;;;;4952246;29;20051;-82
2022/03/27 14:28:57;;;;;;;15.20;8.45;;;26.80;28.40;;;;;;4952782;29;20056;-82
2022/03/27 14:31:24;;;;;;;11.93;7.45;;;27.40;27.60;;;;;;4952660;29;20420;-80
2022/03/27 14:33:51;;;;;;;13.52;7.97;;;28.00;27.10;;;;;;4952676;29;20051;-82
2022/03/27 14:36:19;;;;;;;11.45;7.28;;;28.60;27.90;;;;;;4952066;28;20065;-82
2022/03/27 14:38:46;;;;;;;10.93;6.18;;;28.90;26.90;;;;;;4952885;29;20086;-81
2022/03/27 14:41:15;;;;;;;7.90;5.30;;;29.10;26.70;;;;;;4951690;29;20055;-82
2022/03/27 14:43:42;;;;;;;10.50;6.30;;;28.30;26.00;;;;;;4945336;29;20074;-83
2022/03/27 14:46:10;;;;;;;9.18;6.00;;;28.00;26.20;;;;;;4949877;28;20082;-82
2022/03/27 14:48:38;;;;;;;9.50;5.43;;;29.30;26.80;;;;;;4950631;29;20098;-82
2022/03/27 14:51:05;;;;;;;10.13;5.65;;;29.90;26.60;;;;;;4948487;28;20480;-82
2022/03/27 14:55:57;;;;;;;9.45;5.70;;;30.30;25.90;;;;;;4951206;28;20472;-82
2022/03/27 14:56:21;;;;;;;7.45;5.20;;;28.90;25.60;;;;;;4950337;29;20051;-82
2022/03/27 14:58:49;;;;;;;7.70;5.28;;;30.00;26.70;;;;;;4950890;29;20066;-82
2022/03/27 15:01:16;;;;;;;9.50;5.53;;;30.30;26.00;;;;;;4949961;28;20074;-82
2022/03/27 15:03:46;;;;;;;8.30;5.22;;;30.70;26.90;;;;;;4950565;29;20075;-83
2022/03/27 15:06:13;;;;;;;10.02;6.03;;;30.90;25.90;;;;;;4950405;29;20051;-83
2022/03/27 15:08:40;;;;;;;9.45;5.35;;;30.90;25.60;;;;;;4944946;29;20580;-83
2022/03/27 15:11:07;;;;;;;8.25;5.88;;;30.80;25.70;;;;;;4950610;28;20119;-82
2022/03/27 15:13:35;;;;;;;8.27;5.75;;;31.10;25.70;;;;;;4950713;29;20044;-82
2022/03/27 15:16:03;;;;;;;10.50;5.70;;;30.70;25.30;;;;;;4949093;28;20047;-82
2022/03/27 15:18:30;;;;;;;8.98;6.15;;;30.60;25.50;;;;;;4949021;28;20135;-82
2022/03/27 15:20:57;;;;;;;8.20;5.80;;;30.30;24.90;;;;;;4950633;29;20508;-82
2022/03/27 15:23:24;;;;;;;7.88;5.60;;;31.00;25.70;;;;;;4950124;29;20134;-83
2022/03/27 15:25:51;;;;;;;7.50;5.38;;;31.20;25.90;;;;;;4950745;29;20074;-82
2022/03/27 15:28:18;;;;;;;7.40;5.60;;;30.70;25.50;;;;;;4950257;28;20052;-82
2022/03/27 15:30:47;;;;;;;7.53;5.40;;;30.90;25.80;;;;;;4950633;29;20162;-82
2022/03/27 15:33:15;;;;;;;10.10;5.57;;;30.20;25.40;;;;;;4949997;29;20480;-82
2022/03/27 15:35:42;;;;;;;9.63;5.85;;;30.30;25.40;;;;;;4950834;29;20074;-83
2022/03/27 15:38:09;;;;;;;9.60;5.82;;;30.70;25.70;;;;;;4949823;28;20051;-81
2022/03/27 15:40:36;;;;;;;8.30;5.60;;;30.80;25.30;;;;;;4947530;28;20055;-82
2022/03/27 15:43:06;;;;;;;8.32;5.85;;;30.80;24.80;;;;;;4949447;28;20043;-82
2022/03/27 15:45:34;;;;;;;8.10;4.97;;;31.00;24.70;;;;;;4950292;28;20043;-82
2022/03/27 15:48:04;;;;;;;7.85;5.18;;;30.50;25.40;;;;;;4947843;28;20043;-82
2022/03/27 15:50:32;;;;;;;8.88;5.53;;;31.00;24.70;;;;;;4949975;28;20500;-82
2022/03/27 15:53:01;;;;;;;10.55;6.05;;;30.70;25.20;;;;;;4949021;28;20058;-82
2022/03/27 15:55:29;;;;;;;11.70;6.68;;;30.90;24.80;;;;;;4950295;28;20055;-81
2022/03/27 15:57:56;;;;;;;9.93;5.70;;;30.40;24.70;;;;;;4950303;28;20057;-82
2022/03/27 16:00:23;;;;;;;8.27;5.20;;;30.40;24.90;;;;;;4949914;28;20485;-81
2022/03/27 16:02:50;;;;;;;9.57;5.22;;;30.50;24.90;;;;;;4951610;28;20047;-82
2022/03/27 16:05:19;;;;;;;8.52;4.90;;;29.90;25.30;;;;;;4953075;28;20051;-82
2022/03/27 16:07:46;;;;;;;8.38;5.60;;;29.80;25.00;;;;;;4953879;29;20043;-81
2022/03/27 16:10:13;;;;;;;7.80;5.63;;;29.30;25.00;;;;;;4952528;29;20106;-80
2022/03/27 16:12:40;;;;;;;10.10;6.28;;;29.50;25.50;;;;;;4953780;29;20049;-81
2022/03/27 16:15:08;;;;;;;9.52;6.10;;;30.10;24.80;;;;;;4953234;28;20054;-81
2022/03/27 16:17:35;;;;;;;9.40;6.00;;;29.60;25.50;;;;;;4953144;29;20043;-81
2022/03/27 16:20:04;;;;;;;11.43;5.72;;;29.40;25.40;;;;;;4952974;29;20066;-81
2022/03/27 16:22:32;;;;;;;9.35;5.63;;;30.10;25.20;;;;;;4953507;29;20047;-82
2022/03/27 16:25:00;;;;;;;11.55;6.22;;;30.20;25.20;;;;;;4953902;28;20094;-81
2022/03/27 16:27:27;;;;;;;9.32;6.13;;;29.80;25.30;;;;;;4952794;29;20138;-81
2022/03/27 16:29:57;;;;;;;10.77;5.30;;;29.50;25.80;;;;;;4953858;29;20106;-80
2022/03/27 16:32:25;;;;;;;9.70;5.57;;;29.20;25.20;;;;;;4958219;28;20412;-87
2022/03/27 16:34:52;;;;;;;9.60;6.43;;;29.30;27.40;;;;;;4959990;28;20451;-82
2022/03/27 16:37:22;;;;;;;10.63;6.97;;;28.80;25.60;;;;;;4955442;29;20058;-81
2022/03/27 16:39:51;;;;;;;8.77;6.13;;;28.10;25.30;;;;;;4954098;29;20051;-80
2022/03/27 16:42:18;;;;;;;8.30;5.90;;;27.10;25.70;;;;;;4956507;28;20054;-78
2022/03/27 16:44:45;;;;;;;11.40;6.25;;;27.40;25.90;;;;;;4953651;28;20489;-79
2022/03/27 16:47:13;;;;;;;9.30;6.22;;;28.30;26.00;;;;;;4951520;29;20043;-83
2022/03/27 16:49:40;;;;;;;9.90;6.50;;;28.30;25.80;;;;;;4947637;28;20048;-82
2022/03/27 16:52:09;;;;;;;10.57;5.88;;;27.90;26.60;;;;;;4952730;28;20051;-81
2022/03/27 16:54:36;;;;;;;12.57;6.35;;;27.70;26.30;;;;;;4954351;28;20050;-87
2022/03/27 16:57:05;;;;;;;9.60;6.28;;;27.10;26.40;;;;;;4952822;29;20061;-83
2022/03/27 16:59:32;;;;;;;9.68;6.38;;;26.30;27.10;;;;;;4953151;29;20149;-82
2022/03/27 17:01:59;;;;;;;9.95;6.15;;;26.20;27.50;;;;;;4952967;29;20054;-82
2022/03/27 17:04:26;;;;;;;10.77;6.60;;;25.90;27.00;;;;;;4952118;29;20078;-82
2022/03/27 17:06:54;;;;;;;9.85;6.57;;;25.20;27.90;;;;;;4952769;29;20078;-82
2022/03/27 17:09:21;;;;;;;10.55;6.80;;;25.00;27.90;;;;;;4951553;28;20133;-81
2022/03/27 17:11:48;;;;;;;11.05;6.47;;;24.80;28.60;;;;;;4953013;28;20051;-77
2022/03/27 17:14:16;;;;;;;11.27;6.72;;;24.90;29.10;;;;;;4951496;28;20043;-78
2022/03/27 17:16:43;;;;;;;11.00;6.78;;;24.60;28.90;;;;;;4952227;29;20051;-78
2022/03/27 17:19:10;;;;;;;10.98;7.13;;;24.10;29.50;;;;;;4952434;29;20047;-87
2022/03/27 17:21:37;;;;;;;10.60;6.50;;;23.60;30.50;;;;;;4952757;29;20057;-78
2022/03/27 17:24:05;;;;;;;13.98;6.95;;;23.50;31.30;;;;;;4952321;29;20069;-78
2022/03/27 17:26:33;;;;;;;11.65;6.30;;;23.20;31.60;;;;;;4951357;29;20134;-79
2022/03/27 17:29:00;;;;;;;12.98;6.35;;;23.00;32.10;;;;;;4952592;29;20043;-84
2022/03/27 17:31:29;;;;;;;11.10;6.90;;;22.70;32.80;;;;;;4952295;28;20043;-92
2022/03/27 17:33:56;;;;;;;11.70;6.28;;;22.20;33.60;;;;;;4951933;28;20055;-83
2022/03/27 17:36:23;;;;;;;12.73;6.43;;;22.00;33.40;;;;;;4950835;28;20476;-82
2022/03/27 17:38:51;;;;;;;9.60;5.72;;;21.80;33.80;;;;;;4951142;28;20420;-81
2022/03/27 17:41:18;;;;;;;11.82;6.30;;;21.60;34.60;;;;;;4950309;28;20065;-82
2022/03/27 17:43:45;;;;;;;11.27;6.60;;;21.30;34.20;;;;;;4951324;28;20050;-81
2022/03/27 17:46:13;;;;;;;9.50;5.88;;;20.90;34.50;;;;;;4948355;28;20450;-82
2022/03/27 17:48:41;;;;;;;11.57;6.07;;;20.70;34.70;;;;;;4950041;28;20138;-82
2022/03/27 17:51:08;;;;;;;10.20;5.38;;;20.60;35.00;;;;;;4951210;28;20047;-81
2022/03/27 17:53:36;;;;;;;11.75;6.15;;;20.50;35.70;;;;;;4951593;28;20047;-82
2022/03/27 17:56:03;;;;;;;13.20;5.70;;;20.20;35.80;;;;;;4950076;28;20071;-81
2022/03/27 17:58:35;;;;;;;10.50;5.82;;;20.10;36.60;;;;;;4951650;28;20458;-87
2022/03/27 18:01:05;;;;;;;9.75;5.18;;;19.90;36.00;;;;;;4937293;29;20500;-89
2022/03/27 18:03:32;;;;;;;9.23;5.50;;;19.60;35.90;;;;;;4953220;29;20464;-88
2022/03/27 18:06:01;;;;;;;8.88;5.18;;;19.50;37.70;;;;;;4953388;28;20086;-87
2022/03/27 18:08:29;;;;;;;9.07;5.22;;;19.30;36.80;;;;;;4955644;28;20493;-89
2022/03/27 18:10:57;;;;;;;9.25;4.82;;;19.20;36.60;;;;;;4954858;29;20059;-88